Data for 10/17/2006

Time Sea-Level Adjusted Pressure Absolute Pressure Temperature Relative Humidity Dew Point   
(mb) (inHg) (mb) (inHg) (C) (F) (%) (C) (F)
00:05 1014 29.94 843 24.89 -1.5 29.2 98 -1.8 28.7
00:10 1014 29.94 843 24.89 -1.6 29.2 98 -1.9 28.7
00:15 1014 29.94 843 24.89 -1.6 29.1 98 -1.9 28.5
00:20 1014 29.94 843 24.89 -1.7 29 98 -2 28.4
00:25 1014 29.94 843 24.89 -1.7 29 98 -2 28.5
00:30 1014 29.94 843 24.89 -1.7 29 98 -2 28.4
00:35 1014 29.94 843 24.89 -1.8 28.8 98 -2.1 28.2
00:40 1014 29.94 843 24.89 -1.8 28.8 98 -2.1 28.2
00:45 1014 29.94 843 24.89 -1.8 28.8 98 -2.1 28.3
00:50 1014 29.94 843 24.89 -1.7 28.9 98 -2 28.4
00:55 1014 29.94 843 24.89 -1.7 29 98 -2 28.4
01:00 1014 29.94 843 24.89 -1.6 29 98 -1.9 28.6
01:05 1014 29.94 843 24.89 -1.6 29.1 98 -1.9 28.6
01:10 1014 29.94 843 24.89 -1.7 28.9 97 -2.1 28.2
01:15 1014 29.94 843 24.89 -1.8 28.8 97 -2.1 28.1
01:20 1014 29.94 843 24.89 -1.9 28.6 97 -2.2 28
01:25 1014 29.94 843 24.89 -1.9 28.5 98 -2.3 27.9
01:30 1014 29.94 843 24.89 -1.9 28.6 98 -2.2 28
01:35 1014 29.94 843 24.89 -1.9 28.6 98 -2.2 28.1
01:40 1014 29.94 843 24.89 -1.9 28.6 98 -2.2 28.1
01:45 1014 29.94 843 24.89 -1.8 28.7 98 -2.2 28.1
01:50 1014 29.94 843 24.89 -1.9 28.6 98 -2.2 28
01:55 1014 29.94 843 24.89 -1.9 28.6 98 -2.2 28
02:00 1014 29.94 843 24.89 -1.9 28.6 97 -2.2 28
02:05 1014 29.94 843 24.89 -1.9 28.5 98 -2.3 27.9
02:10 1014 29.94 843 24.89 -1.9 28.6 98 -2.2 28
02:15 1014 29.94 843 24.89 -1.9 28.6 97 -2.2 28
02:20 1014 29.94 844 24.92 -1.9 28.5 97 -2.3 27.8
02:25 1014 29.94 844 24.92 -2 28.4 97 -2.4 27.7
02:30 1014 29.94 844 24.92 -2 28.5 97 -2.3 27.8
02:35 1014 29.94 844 24.92 -1.9 28.6 97 -2.3 27.9
02:40 1014 29.94 844 24.92 -1.9 28.6 97 -2.3 27.8
02:45 1015 29.97 844 24.92 -1.9 28.5 97 -2.3 27.8
02:50 1015 29.97 844 24.92 -2 28.5 97 -2.4 27.7
02:55 1015 29.97 844 24.92 -2 28.3 97 -2.5 27.5
03:00 1015 29.97 844 24.92 -2.1 28.2 97 -2.5 27.5
03:05 1015 29.97 844 24.92 -2.1 28.2 97 -2.5 27.4
03:10 1015 29.97 844 24.92 -2.2 28.1 97 -2.6 27.3
03:15 1015 29.97 844 24.92 -2.1 28.1 97 -2.5 27.5
03:20 1015 29.97 844 24.92 -2.2 28.1 97 -2.6 27.4
03:25 1015 29.97 844 24.92 -2.2 28.1 97 -2.6 27.4
03:30 1015 29.97 844 24.92 -2.1 28.2 97 -2.5 27.5
03:35 1015 29.97 844 24.92 -2.1 28.2 97 -2.5 27.4
03:40 1015 29.97 844 24.92 -2 28.3 97 -2.5 27.6
03:45 1015 29.97 844 24.92 -2 28.4 97 -2.5 27.5
03:50 1015 29.97 844 24.92 -2 28.4 97 -2.5 27.6
03:55 1015 29.97 844 24.92 -2.1 28.3 97 -2.5 27.4
04:00 1015 29.97 844 24.92 -2.1 28.2 97 -2.6 27.3
04:05 1015 29.97 844 24.92 -2.1 28.1 97 -2.6 27.3
04:10 1015 29.97 844 24.92 -2.1 28.2 97 -2.5 27.4
04:15 1015 29.97 844 24.92 -2.2 28.1 97 -2.6 27.3
04:20 1015 29.97 844 24.92 -2.1 28.2 96 -2.6 27.3
04:25 1015 29.97 844 24.92 -2.3 27.9 97 -2.7 27.1
04:30 1015 29.97 844 24.92 -2.2 28 97 -2.7 27.2
04:35 1015 29.97 844 24.92 -2.2 28.1 96 -2.7 27.2
04:40 1015 29.97 844 24.92 -2.2 28 96 -2.7 27.1
04:45 1015 29.97 844 24.92 -2.2 28 96 -2.8 26.9
04:50 1015 29.97 844 24.92 -2.3 27.9 96 -2.8 27
04:55 1015 29.97 844 24.92 -2.3 27.9 97 -2.8 27
05:00 1015 29.97 844 24.92 -2.3 27.9 96 -2.8 27
05:05 1015 29.97 844 24.92 -2.2 28 96 -2.7 27.1
05:10 1015 29.97 844 24.92 -2.1 28.1 96 -2.7 27.2
05:15 1015 29.97 844 24.92 -2.2 28.1 96 -2.7 27.1
05:20 1015 29.97 844 24.92 -2.1 28.1 96 -2.7 27.2
05:25 1015 29.97 844 24.92 -2.1 28.3 96 -2.6 27.4
05:30 1015 29.97 844 24.92 -2.1 28.2 96 -2.7 27.1
05:35 1015 29.97 844 24.92 -2.3 27.9 96 -2.8 26.9
05:40 1015 29.97 844 24.92 -2.3 27.9 96 -2.9 26.8
05:45 1015 29.97 845 24.95 -2.3 27.9 95 -3 26.7
05:50 1015 29.97 845 24.95 -2.3 27.9 95 -3 26.7
05:55 1015 29.97 845 24.95 -2.3 27.9 95 -3 26.6
06:00 1015 29.97 845 24.95 -2.3 27.8 94 -3.2 26.2
06:05 1015 29.97 845 24.95 -2.4 27.7 93 -3.4 26
06:10 1015 29.97 845 24.95 -2.5 27.5 93 -3.5 25.7
06:15 1015 29.97 845 24.95 -2.5 27.6 92 -3.5 25.6
06:20 1015 29.97 845 24.95 -2.6 27.4 92 -3.6 25.4
06:25 1016 30 845 24.95 -2.6 27.3 93 -3.6 25.5
06:30 1016 30 845 24.95 -2.6 27.3 93 -3.5 25.6
06:35 1016 30 845 24.95 -2.6 27.4 94 -3.5 25.8
06:40 1016 30 845 24.95 -2.6 27.4 93 -3.6 25.6
06:45 1016 30 845 24.95 -2.7 27.1 92 -3.9 25
06:50 1016 30 845 24.95 -2.7 27.1 92 -3.9 25
06:55 1016 30 845 24.95 -2.7 27.1 91 -4 24.8
07:00 1016 30 845 24.95 -2.7 27.1 90 -4.1 24.6
07:05 1016 30 845 24.95 -2.8 26.9 90 -4.3 24.3
07:10 1016 30 845 24.95 -2.8 26.9 91 -4.2 24.5
07:15 1016 30 845 24.95 -2.8 27 91 -4.1 24.7
07:20 1016 30 845 24.95 -2.9 26.9 91 -4.2 24.5
07:25 1016 30 845 24.95 -3 26.6 91 -4.2 24.4
07:30 1016 30 845 24.95 -3.1 26.5 92 -4.2 24.4
07:35 1016 30 845 24.95 -3.2 26.3 92 -4.2 24.4
07:40 1016 30 845 24.95 -3.2 26.2 92 -4.4 24.2
07:45 1016 30 845 24.95 -3.2 26.2 92 -4.4 24.1
07:50 1016 30 845 24.95 -3.2 26.2 92 -4.4 24.1
07:55 1016 30 845 24.95 -3.2 26.3 91 -4.4 24.1
08:00 1016 30 846 24.98 -3.2 26.3 91 -4.4 24
08:05 1016 30 846 24.98 -3.1 26.4 91 -4.3 24.2
08:10 1016 30 846 24.98 -3.2 26.2 92 -4.4 24.1
08:15 1016 30 846 24.98 -3.2 26.2 92 -4.4 24.1
08:20 1017 30.03 846 24.98 -3.1 26.5 91 -4.3 24.2
08:25 1017 30.03 846 24.98 -3.2 26.3 92 -4.4 24.1
08:30 1017 30.03 846 24.98 -3.2 26.2 92 -4.4 24.2
08:35 1017 30.03 846 24.98 -3.2 26.3 91 -4.4 24.1
08:40 1017 30.03 846 24.98 -3 26.7 91 -4.2 24.4
08:45 1017 30.03 846 24.98 -2.8 26.9 91 -4.1 24.7
08:50 1017 30.03 846 24.98 -2.6 27.3 92 -3.8 25.2
08:55 1017 30.03 846 24.98 -2.3 27.9 90 -3.7 25.3
09:00 1017 30.03 846 24.98 -2.3 27.8 90 -3.8 25.2
09:05 1017 30.03 846 24.98 -2.6 27.3 91 -3.9 24.9
09:10 1017 30.03 846 24.98 -2.7 27.1 91 -3.9 25
09:15 1017 30.03 846 24.98 -2.7 27.1 91 -4 24.8
09:20 1017 30.03 846 24.98 -2.9 26.8 91 -4.1 24.5
09:25 1017 30.03 846 24.98 -2.5 27.4 90 -4 24.9
09:30 1017 30.03 846 24.98 -2.5 27.6 90 -3.9 25
09:35 1017 30.03 847 25.01 -2.3 27.8 92 -3.5 25.7
09:40 1017 30.03 847 25.01 -1.8 28.7 88 -3.6 25.6
09:45 1017 30.03 847 25.01 -1.8 28.7 86 -3.8 25.1
09:50 1017 30.03 847 25.01 -2.2 28 87 -4.2 24.5
09:55 1017 30.03 847 25.01 -2.2 28 90 -3.7 25.3
10:00 1017 30.03 847 25.01 -1.8 28.8 85 -4 24.9
10:05 1018 30.06 847 25.01 -1.9 28.6 86 -3.9 24.9
10:10 1018 30.06 847 25.01 -1.9 28.7 88 -3.6 25.5
10:15 1018 30.06 847 25.01 -1.3 29.6 86 -3.4 26
10:20 1018 30.06 847 25.01 -0.7 30.7 84 -3.1 26.4
10:25 1018 30.06 847 25.01 -0.5 31 78 -3.9 24.9
10:30 1018 30.06 847 25.01 -0.4 31.3 79 -3.6 25.5
10:35 1018 30.06 847 25.01 -0 31.9 80 -3 26.5
10:40 1018 30.06 847 25.01 0 32 81 -2.9 26.8
10:45 1018 30.06 847 25.01 -0.1 31.8 81 -3 26.6
10:50 1018 30.06 847 25.01 -0.4 31.2 81 -3.2 26.2
10:55 1018 30.06 847 25.01 -0.3 31.4 80 -3.3 26
11:00 1018 30.06 847 25.01 -0.2 31.7 79 -3.4 25.9
11:05 1018 30.06 847 25.01 0.1 32.2 79 -3.1 26.4
11:10 1018 30.06 847 25.01 0.6 33 75 -3.4 25.9
11:15 1018 30.06 847 25.01 0.6 33 76 -3.1 26.4
11:20 1018 30.06 847 25.01 0.4 32.8 77 -3.2 26.3
11:25 1018 30.06 847 25.01 0.4 32.7 74 -3.7 25.3
11:30 1018 30.06 847 25.01 0.5 32.9 75 -3.5 25.8
11:35 1018 30.06 847 25.01 0.2 32.3 77 -3.4 25.8
11:40 1018 30.06 847 25.01 -0.2 31.6 78 -3.5 25.7
11:45 1018 30.06 847 25.01 -0.3 31.5 77 -3.8 25.2
11:50 1018 30.06 847 25.01 -0.4 31.3 77 -4 24.9
11:55 1018 30.06 847 25.01 -0.2 31.6 79 -3.5 25.7
12:00 1018 30.06 847 25.01 0.1 32.2 77 -3.5 25.7
12:05 1018 30.06 847 25.01 -0.7 30.8 79 -3.8 25.1
12:10 1018 30.06 847 25.01 -0.7 30.7 78 -4.1 24.7
12:15 1018 30.06 847 25.01 -0.1 31.9 75 -4 24.8
12:20 1018 30.06 847 25.01 -0.4 31.3 77 -3.9 25
12:25 1018 30.06 847 25.01 -1.2 29.8 82 -3.9 25.1
12:30 1018 30.06 847 25.01 -0.5 31 78 -3.9 24.9
12:35 1018 30.06 847 25.01 -0.3 31.4 76 -4.1 24.7
12:40 1018 30.06 847 25.01 -0.2 31.7 74 -4.2 24.4
12:45 1018 30.06 847 25.01 -0.9 30.5 76 -4.5 23.9
12:50 1018 30.06 847 25.01 -0.8 30.5 79 -4.1 24.7
12:55 1018 30.06 848 25.04 -0.8 30.6 78 -4.1 24.6
13:00 1018 30.06 847 25.01 -1.3 29.7 80 -4.2 24.4
13:05 1018 30.06 847 25.01 -1.2 29.9 79 -4.4 24.1
13:10 1018 30.06 847 25.01 -0.8 30.6 79 -4 24.7
13:15 1018 30.06 847 25.01 -0.7 30.7 78 -4 24.8
13:20 1018 30.06 847 25.01 -1 30.3 80 -4 24.8
13:25 1018 30.06 847 25.01 -0.9 30.4 78 -4.3 24.3
13:30 1018 30.06 847 25.01 -1.4 29.6 82 -4 24.7
13:35 1018 30.06 847 25.01 -0.9 30.4 78 -4.2 24.4
13:40 1018 30.06 847 25.01 -1.2 29.8 80 -4.2 24.5
13:45 1018 30.06 847 25.01 -1.3 29.6 80 -4.3 24.3
13:50 1018 30.06 847 25.01 -1.4 29.5 80 -4.4 24
13:55 1018 30.06 847 25.01 -1.1 30 80 -4.2 24.4
14:00 1018 30.06 847 25.01 -1.1 30 80 -4.1 24.6
14:05 1018 30.06 847 25.01 -1.1 29.9 80 -4.1 24.6
14:10 1018 30.06 847 25.01 -1.3 29.7 80 -4.3 24.3
14:15 1018 30.06 847 25.01 -1.3 29.7 81 -4.2 24.4
14:20 1018 30.06 847 25.01 -1.3 29.7 80 -4.2 24.4
14:25 1018 30.06 847 25.01 -1 30.2 80 -4.1 24.7
14:30 1018 30.06 847 25.01 -1.1 30.1 79 -4.3 24.2
14:35 1018 30.06 847 25.01 -1.2 29.8 80 -4.3 24.3
14:40 1018 30.06 847 25.01 -1.2 29.9 81 -4 24.8
14:45 1018 30.06 847 25.01 -1.2 29.8 80 -4.3 24.2
14:50 1018 30.06 847 25.01 -1.2 29.8 81 -4.1 24.5
14:55 1018 30.06 847 25.01 -1.4 29.5 80 -4.4 24.1
15:00 1018 30.06 847 25.01 -1.5 29.3 81 -4.4 24.2
15:05 1018 30.06 847 25.01 -1.3 29.6 80 -4.3 24.3
15:10 1018 30.06 847 25.01 -1.3 29.6 81 -4.1 24.6
15:15 1018 30.06 847 25.01 -1.4 29.4 81 -4.2 24.4
15:20 1018 30.06 847 25.01 -1.4 29.5 81 -4.2 24.5
15:25 1018 30.06 847 25.01 -1.3 29.6 81 -4.2 24.5
15:30 1018 30.06 847 25.01 -1.4 29.5 81 -4.3 24.2
15:35 1018 30.06 847 25.01 -1.4 29.4 81 -4.2 24.4
15:40 1018 30.06 847 25.01 -1.3 29.6 82 -4 24.7
15:45 1018 30.06 847 25.01 -1.2 29.9 80 -4.2 24.5
15:50 1018 30.06 847 25.01 -1.3 29.6 80 -4.4 24.1
15:55 1018 30.06 848 25.04 -1.3 29.6 81 -4.3 24.3
16:00 1018 30.06 848 25.04 -1.3 29.6 80 -4.3 24.3
16:05 1018 30.06 848 25.04 -1.3 29.7 80 -4.4 24.2
16:10 1018 30.06 848 25.04 -1.2 29.8 80 -4.3 24.2
16:15 1018 30.06 848 25.04 -1.2 29.9 80 -4.2 24.4
16:20 1018 30.06 848 25.04 -1 30.2 78 -4.3 24.3
16:25 1018 30.06 848 25.04 -1.1 29.9 78 -4.5 24
16:30 1019 30.09 848 25.04 -1.2 29.8 79 -4.5 24
16:35 1019 30.09 848 25.04 -1.2 29.9 78 -4.6 23.7
16:40 1019 30.09 848 25.04 -1.1 30 79 -4.3 24.2
16:45 1019 30.09 848 25.04 -1.1 30 79 -4.3 24.3
16:50 1019 30.09 848 25.04 -1.1 30.1 79 -4.3 24.3
16:55 1019 30.09 848 25.04 -1.1 30 79 -4.4 24.1
17:00 1019 30.09 848 25.04 -1.1 30 79 -4.4 24.1
17:05 1019 30.09 848 25.04 -1.1 30.1 78 -4.4 24.1
17:10 1019 30.09 848 25.04 -1 30.3 78 -4.4 24.1
17:15 1019 30.09 848 25.04 -1.1 30 79 -4.4 24.1
17:20 1019 30.09 848 25.04 -1.1 30 78 -4.5 23.9
17:25 1019 30.09 848 25.04 -1 30.2 78 -4.4 24.1
17:30 1019 30.09 848 25.04 -1 30.3 78 -4.4 24.2
17:35 1019 30.09 848 25.04 -0.9 30.4 77 -4.4 24.1
17:40 1019 30.09 848 25.04 -0.9 30.3 77 -4.4 24.1
17:45 1019 30.09 848 25.04 -0.8 30.5 77 -4.4 24.1
17:50 1019 30.09 848 25.04 -0.9 30.4 77 -4.5 23.9
17:55 1019 30.09 848 25.04 -0.8 30.5 78 -4.3 24.3
18:00 1019 30.09 848 25.04 -0.7 30.7 77 -4.2 24.4
18:05 1019 30.09 848 25.04 -0.7 30.7 76 -4.3 24.2
18:10 1019 30.09 848 25.04 -0.7 30.8 77 -4.2 24.4
18:15 1019 30.09 848 25.04 -0.7 30.8 77 -4.3 24.2
18:20 1019 30.09 848 25.04 -0.8 30.6 77 -4.2 24.4
18:25 1019 30.09 848 25.04 -0.6 30.9 78 -4.1 24.7
18:30 1019 30.09 849 25.07 -0.6 31 78 -4 24.9
18:35 1019 30.09 849 25.07 -0.2 31.6 77 -3.8 25.1
18:40 1019 30.09 849 25.07 -0.3 31.5 76 -4 24.7
18:45 1019 30.09 849 25.07 -0.7 30.7 79 -3.9 24.9
18:50 1020 30.12 849 25.07 -0.7 30.8 77 -4.1 24.6
18:55 1019 30.09 849 25.07 -0.7 30.7 77 -4.2 24.4
19:00 1019 30.09 849 25.07 -0.9 30.3 78 -4.3 24.2
19:05 1020 30.12 849 25.07 -0.8 30.5 78 -4.2 24.5
19:10 1020 30.12 849 25.07 -0.6 31 77 -4.1 24.6
19:15 1020 30.12 849 25.07 -0.6 30.9 79 -3.8 25.1
19:20 1020 30.12 849 25.07 -0.7 30.8 77 -4.3 24.3
19:25 1020 30.12 849 25.07 -0.7 30.8 78 -4 24.8
19:30 1020 30.12 849 25.07 -0.6 30.9 79 -3.8 25.2
19:35 1020 30.12 849 25.07 -0.7 30.7 82 -3.4 25.8
19:40 1020 30.12 849 25.07 -0.8 30.5 83 -3.3 26
19:45 1020 30.12 849 25.07 -0.9 30.5 83 -3.5 25.8
19:50 1020 30.12 849 25.07 -1 30.1 82 -3.7 25.3
19:55 1020 30.12 849 25.07 -1.1 30.1 80 -4.1 24.6
20:00 1020 30.12 849 25.07 -0.9 30.3 79 -4.1 24.7
20:05 1020 30.12 849 25.07 -0.7 30.7 81 -3.6 25.5
20:10 1020 30.12 849 25.07 -0.6 30.9 80 -3.6 25.6
20:15 1020 30.12 850 25.1 -0.8 30.5 83 -3.4 25.8
20:20 1020 30.12 850 25.1 -1 30.2 84 -3.3 26.1
20:25 1020 30.12 850 25.1 -0.9 30.3 84 -3.3 26.1
20:30 1020 30.12 850 25.1 -0.8 30.5 85 -3.1 26.5
20:35 1020 30.12 850 25.1 -0.8 30.5 85 -3 26.6
20:40 1020 30.12 850 25.1 -0.9 30.3 85 -3.2 26.3
20:45 1020 30.12 850 25.1 -0.9 30.3 86 -3.1 26.5
20:50 1020 30.12 850 25.1 -1 30.2 83 -3.6 25.6
20:55 1020 30.12 850 25.1 -0.9 30.4 84 -3.2 26.3
21:00 1020 30.12 850 25.1 -1 30.3 86 -3.1 26.5
21:05 1020 30.12 850 25.1 -1 30.2 87 -2.9 26.8
21:10 1020 30.12 850 25.1 -1.1 30 86 -3.3 26.1
21:15 1021 30.15 850 25.1 -1.1 30 82 -3.8 25.2
21:20 1021 30.15 850 25.1 -1 30.3 81 -3.8 25.1
21:25 1021 30.15 850 25.1 -1 30.3 82 -3.6 25.4
21:30 1021 30.15 850 25.1 -0.9 30.3 84 -3.4 25.9
21:35 1021 30.15 850 25.1 -1 30.2 84 -3.3 26.1
21:40 1021 30.15 850 25.1 -0.9 30.4 86 -2.9 26.8
21:45 1021 30.15 850 25.1 -0.9 30.4 87 -2.7 27.1
21:50 1021 30.15 850 25.1 -0.9 30.4 88 -2.6 27.3
21:55 1021 30.15 850 25.1 -1 30.3 86 -3 26.6
22:00 1021 30.15 850 25.1 -0.9 30.3 87 -2.9 26.8
22:05 1021 30.15 850 25.1 -1 30.2 87 -3 26.7
22:10 1021 30.15 850 25.1 -1.2 29.8 85 -3.4 26
22:15 1020 30.12 850 25.1 -1.3 29.6 86 -3.4 25.8
22:20 1020 30.12 850 25.1 -1.3 29.6 87 -3.2 26.2
22:25 1021 30.15 850 25.1 -1.3 29.6 86 -3.3 26
22:30 1021 30.15 850 25.1 -1.1 29.9 84 -3.5 25.7
22:35 1020 30.12 850 25.1 -1.1 30.1 86 -3.1 26.3
22:40 1020 30.12 850 25.1 -1.2 29.9 87 -3.1 26.4
22:45 1020 30.12 850 25.1 -1.3 29.7 87 -3.2 26.2
22:50 1021 30.15 850 25.1 -1.4 29.5 85 -3.6 25.5
22:55 1021 30.15 850 25.1 -1.3 29.6 85 -3.5 25.7
23:00 1021 30.15 850 25.1 -1.2 29.8 82 -4 24.8
23:05 1021 30.15 850 25.1 -1.1 30 82 -3.9 25.1
23:10 1021 30.15 850 25.1 -1.1 30.1 82 -3.7 25.3
23:15 1021 30.15 850 25.1 -0.9 30.3 82 -3.6 25.5
23:20 1021 30.15 850 25.1 -0.9 30.3 83 -3.5 25.7
23:25 1021 30.15 850 25.1 -1 30.3 83 -3.5 25.8
23:30 1021 30.15 850 25.1 -0.9 30.4 83 -3.5 25.8
23:35 1021 30.15 850 25.1 -1 30.2 83 -3.6 25.6
23:40 1021 30.15 850 25.1 -1.2 29.8 85 -3.5 25.7
23:45 1021 30.15 850 25.1 -1.3 29.7 84 -3.7 25.4
23:50 1021 30.15 850 25.1 -1.2 29.9 84 -3.6 25.5
23:55 1021 30.15 850 25.1 -1.1 30 86 -3.2 26.2
24:00 1021 30.15 850 25.1 -0.9 30.3 85 -3.2 26.3